Time;durP1;ratioP1;P1;durP2;ratioP2;P2;SDS_P1;SDS_P2;PMS_P1;PMS_P2;Temp;Humidity;BMP_temperature;BMP_pressure;BME280_temperature;BME280_humidity;BME280_pressure;Samples;Min_cycle;Max_cycle;Signal;HPM_P1;HPM_P2
2022/02/03 00:04:39;;;;;;;20.02;8.80;;;;;;;8.12;92.49;102175.69;5074787;28;20033;-78
2022/02/03 00:07:10;;;;;;;21.75;8.27;;;;;;;8.12;92.56;102175.69;5049082;28;20033;-78
2022/02/03 00:26:16;;;;;;;19.65;9.45;;;;;;;8.05;93.00;102167.03;5057850;28;20045;-78
2022/02/03 00:28:45;;;;;;;21.00;9.07;;;;;;;8.05;93.08;102160.06;5040694;28;20109;-78
2022/02/03 00:31:29;;;;;;;22.92;9.27;;;;;;;8.06;93.08;102163.56;5040580;28;20280;-78
2022/02/03 00:34:14;;;;;;;19.15;9.45;;;;;;;8.06;92.86;102166.19;5048906;28;20115;-78
2022/02/03 00:37:11;;;;;;;16.80;9.60;;;;;;;8.05;93.15;102170.50;5060709;28;20278;-78
2022/02/03 00:50:39;;;;;;;16.95;9.77;;;;;;;8.04;93.27;102149.63;5078033;28;20044;-78
2022/02/03 00:53:07;;;;;;;14.52;7.95;;;;;;;8.04;93.17;102142.69;5078329;28;20051;-78
2022/02/03 00:55:36;;;;;;;12.00;8.77;;;;;;;8.07;93.32;102150.47;5060655;28;20131;-78
2022/02/03 00:58:03;;;;;;;22.15;10.20;;;;;;;8.08;93.17;102151.38;5042922;28;20032;-78
2022/02/03 01:00:33;;;;;;;21.55;11.05;;;;;;;8.06;93.22;102146.16;5077929;28;20041;-78
2022/02/03 01:03:11;;;;;;;16.90;9.77;;;;;;;8.07;93.02;102142.66;5078078;28;20029;-78
2022/02/03 01:05:40;;;;;;;30.00;12.53;;;;;;;8.05;92.96;102144.41;5078047;28;20032;-78
2022/02/03 01:08:15;;;;;;;21.95;12.93;;;;;;;8.04;93.12;102147.03;5057648;28;20066;-78
2022/02/03 01:10:50;;;;;;;28.95;13.48;;;;;;;8.03;93.23;102153.16;5042980;28;20107;-78
2022/02/03 01:13:36;;;;;;;29.50;13.68;;;;;;;8.02;93.19;102147.06;5057820;28;20056;-78
2022/02/03 01:35:00;;;;;;;22.75;11.45;;;;;;;8.01;93.10;102108.81;5062337;28;20358;-78
2022/02/03 01:45:20;;;;;;;19.05;11.35;;;;;;;8.01;92.93;102105.34;5076300;28;20044;-78
2022/02/03 01:47:55;;;;;;;23.23;10.68;;;;;;;8.00;93.03;102101.00;5060967;28;20036;-78
2022/02/03 01:52:49;;;;;;;24.92;11.32;;;;;;;7.99;92.71;102105.34;5077024;28;20044;-78
2022/02/03 01:55:17;;;;;;;22.25;10.70;;;;;;;7.97;92.66;102111.47;5043225;28;20327;-78
2022/02/03 01:58:11;;;;;;;25.70;10.38;;;;;;;7.96;92.59;102104.50;5077478;28;20035;-78
2022/02/03 02:04:24;;;;;;;24.35;11.45;;;;;;;7.94;92.55;102090.63;5061993;28;20374;-78
2022/02/03 02:07:18;;;;;;;22.00;10.20;;;;;;;7.92;92.64;102080.19;5065405;28;20240;-78
2022/02/03 02:10:07;;;;;;;20.40;9.35;;;;;;;7.92;92.38;102089.78;5077991;28;20209;-79
2022/02/03 02:13:08;;;;;;;17.23;7.85;;;;;;;7.92;92.06;102100.22;5049369;28;20059;-79
2022/02/03 02:40:05;;;;;;;16.17;7.05;;;;;;;7.85;91.90;102034.19;5078606;28;20264;-79
2022/02/03 02:42:39;;;;;;;14.57;6.70;;;;;;;7.85;91.57;102029.81;5063043;28;20035;-79
2022/02/03 02:45:09;;;;;;;12.68;6.00;;;;;;;7.85;91.93;102018.53;5080619;28;20031;-78
2022/02/03 02:48:16;;;;;;;23.27;6.57;;;;;;;7.85;91.59;102008.09;5059242;28;20036;-78
2022/02/03 02:51:00;;;;;;;19.42;6.22;;;;;;;7.82;91.28;102003.81;5060813;28;20040;-79
2022/02/03 02:56:31;;;;;;;14.02;6.38;;;;;;;7.81;91.45;102002.06;5060855;28;20025;-79
2022/02/03 02:59:26;;;;;;;12.60;5.03;;;;;;;7.81;91.13;101994.22;5074934;28;20051;-79
2022/02/03 03:32:53;;;;;;;9.57;5.32;;;;;;;7.88;90.62;101930.69;5061085;28;20044;-79
2022/02/03 03:38:00;;;;;;;7.25;4.70;;;;;;;7.93;90.83;101921.94;5059811;28;20037;-79
2022/02/03 03:40:28;;;;;;;10.00;5.55;;;;;;;7.92;90.71;101921.09;5041985;28;20032;-79
2022/02/03 03:43:06;;;;;;;8.20;5.25;;;;;;;7.93;90.78;101915.00;5059881;28;20396;-79
2022/02/03 03:45:33;;;;;;;6.97;4.63;;;;;;;7.93;90.73;101906.28;5059895;28;20237;-79
2022/02/03 03:48:02;;;;;;;15.27;6.25;;;;;;;7.92;90.52;101908.03;5066646;28;20047;-79
2022/02/03 03:50:29;;;;;;;;;;;;;;;7.92;90.83;101915.00;5080538;28;20431;-79
2022/02/03 03:53:00;;;;;;;9.00;4.97;;;;;;;7.95;90.97;101922.78;5077687;28;20177;-79
2022/02/03 05:11:26;;;;;;;15.27;4.27;;;;;;;7.72;88.97;101839.63;5058235;28;20051;-79
2022/02/03 05:15:35;;;;;;;5.28;2.92;;;;;;;7.74;89.54;101836.13;5058696;28;20032;-79
2022/02/03 05:26:01;;;;;;;5.38;2.53;;;;;;;7.73;89.91;101820.47;5078214;28;20056;-79
2022/02/03 05:46:06;;;;;;;7.43;2.10;;;;;;;7.71;89.11;101801.41;5075629;28;20029;-79
2022/02/03 05:51:15;;;;;;;5.22;1.95;;;;;;;7.71;89.21;101788.34;5065839;28;20052;-79
2022/02/03 06:07:48;;;;;;;5.68;2.50;;;;;;;7.69;89.16;101762.28;5024915;28;20053;-79
2022/02/03 06:15:33;;;;;;;5.20;2.53;;;;;;;7.68;88.92;101760.59;5059639;28;20032;-79
2022/02/03 06:23:48;;;;;;;8.15;2.75;;;;;;;7.61;87.86;101767.63;5075510;28;20059;-79
2022/02/03 06:29:02;;;;;;;2.65;2.03;;;;;;;7.61;88.46;101751.13;5056919;28;20083;-79
2022/02/03 06:31:28;;;;;;;3.50;2.20;;;;;;;7.64;88.85;101751.06;5067505;28;20039;-79
2022/02/03 06:33:54;;;;;;;2.60;2.10;;;;;;;7.64;88.53;101738.03;5060936;28;20373;-79
2022/02/03 06:36:20;;;;;;;5.00;2.30;;;;;;;7.64;88.47;101738.03;5039336;28;20040;-79
2022/02/03 06:38:45;;;;;;;4.88;2.53;;;;;;;7.63;88.62;101731.09;5023032;28;20372;-79
2022/02/03 06:41:11;;;;;;;3.58;2.50;;;;;;;7.64;88.92;101719.78;5056911;28;20037;-78
2022/02/03 06:43:36;;;;;;;3.28;2.30;;;;;;;7.63;88.71;101716.31;5039310;28;20079;-78
2022/02/03 06:46:06;;;;;;;5.25;2.83;;;;;;;7.62;88.70;101712.00;5039022;28;20100;-78
2022/02/03 06:48:33;;;;;;;5.88;3.00;;;;;;;7.62;88.75;101721.56;5069983;28;20044;-78
2022/02/03 06:51:08;;;;;;;6.18;2.80;;;;;;;7.59;88.32;101717.25;5058685;28;20051;-78
2022/02/03 06:53:37;;;;;;;9.73;3.65;;;;;;;7.52;87.70;101705.19;5076710;28;20063;-79
2022/02/03 06:56:12;;;;;;;5.68;3.13;;;;;;;7.55;88.30;101719.91;5043287;28;20107;-79
2022/02/03 06:58:44;;;;;;;8.27;3.28;;;;;;;7.54;88.12;101715.59;5060216;28;20040;-79
2022/02/03 07:01:17;;;;;;;3.67;2.72;;;;;;;7.56;88.21;101719.03;5062205;28;20032;-78
2022/02/03 07:03:50;;;;;;;5.53;3.00;;;;;;;7.58;88.43;101730.31;5080573;28;20347;-79
2022/02/03 07:06:17;;;;;;;6.90;3.28;;;;;;;7.58;88.15;101722.47;5052340;28;20032;-79
2022/02/03 07:08:43;;;;;;;4.85;3.03;;;;;;;7.58;88.54;101727.69;5072956;28;20099;-79
2022/02/03 07:11:09;;;;;;;3.75;2.85;;;;;;;7.58;88.57;101718.13;5059179;28;20301;-79
2022/02/03 07:13:35;;;;;;;3.03;2.60;;;;;;;7.60;88.86;101720.72;5047885;28;20041;-79
2022/02/03 07:16:00;;;;;;;8.77;3.88;;;;;;;7.59;88.45;101716.41;5042176;28;20259;-79
2022/02/03 07:18:26;;;;;;;8.43;4.05;;;;;;;7.56;88.42;101716.44;5028240;28;20115;-79
2022/02/03 07:20:51;;;;;;;9.20;4.28;;;;;;;7.53;87.86;101712.13;5061585;28;20220;-79
2022/02/03 07:23:17;;;;;;;6.15;3.80;;;;;;;7.54;88.51;101703.41;5044712;28;20056;-79
2022/02/03 07:25:43;;;;;;;6.53;3.80;;;;;;;7.56;88.76;101701.66;5061993;28;20025;-79
2022/02/03 07:28:08;;;;;;;6.25;4.15;;;;;;;7.57;88.64;101711.19;5079977;28;20099;-79
2022/02/03 07:30:34;;;;;;;11.45;4.70;;;;;;;7.56;88.61;101700.78;5078284;28;20039;-79
2022/02/03 07:33:02;;;;;;;5.88;4.60;;;;;;;7.53;88.68;101698.22;5070500;28;20276;-79
2022/02/03 07:35:29;;;;;;;8.18;4.60;;;;;;;7.54;88.80;101692.13;5013660;28;20044;-79
2022/02/03 07:37:55;;;;;;;4.88;4.38;;;;;;;7.54;88.74;101695.59;5050682;28;20323;-79
2022/02/03 07:40:20;;;;;;;12.93;5.45;;;;;;;7.52;88.70;101704.34;5040799;28;20063;-79
2022/02/03 07:42:48;;;;;;;9.38;6.28;;;;;;;7.49;88.43;101708.72;5047627;28;20078;-79
2022/02/03 07:45:15;;;;;;;13.95;5.78;;;;;;;7.48;88.61;101711.34;5069629;28;20032;-79
2022/02/03 07:47:49;;;;;;;8.75;5.07;;;;;;;7.47;88.47;101702.63;5074457;28;20037;-79
2022/02/03 07:50:16;;;;;;;9.98;6.45;;;;;;;7.42;88.59;101706.19;5059144;28;20432;-79
2022/02/03 07:52:43;;;;;;;11.75;6.93;;;;;;;7.43;89.24;101710.53;5028835;28;20426;-79
2022/02/03 07:55:09;;;;;;;10.25;5.80;;;;;;;7.41;89.18;101704.47;5059018;28;20307;-79
2022/02/03 07:57:35;;;;;;;7.78;5.10;;;;;;;7.43;89.50;101707.94;5067930;28;20043;-78
2022/02/03 08:00:02;;;;;;;8.10;6.03;;;;;;;7.41;89.91;101707.94;5049381;28;20103;-79
2022/02/03 08:02:27;;;;;;;7.35;5.80;;;;;;;7.41;90.01;101697.53;5030377;28;20883;-79
2022/02/03 08:04:54;;;;;;;7.22;5.65;;;;;;;7.42;90.42;101701.84;5044641;28;20079;-79
2022/02/03 08:07:22;;;;;;;6.28;5.70;;;;;;;7.43;90.36;101706.16;5060588;28;20037;-79
2022/02/03 08:12:17;;;;;;;8.43;7.50;;;;;;;7.38;91.00;101700.16;5035943;28;20032;-79
2022/02/03 08:14:47;;;;;;;9.98;8.10;;;;;;;7.34;91.23;101703.69;5053061;28;20044;-79
2022/02/03 08:17:19;;;;;;;7.85;6.97;;;;;;;7.36;91.30;101695.84;5042221;28;20048;-79
2022/02/03 08:19:54;;;;;;;8.63;7.10;;;;;;;7.36;91.32;101696.72;5056132;28;20068;-79
2022/02/03 08:22:25;;;;;;;10.02;7.97;;;;;;;7.34;91.52;101689.81;5028199;28;20083;-79
2022/02/03 08:25:04;;;;;;;8.25;6.90;;;;;;;7.33;91.37;101688.97;5039594;28;20271;-79
2022/02/03 08:32:32;;;;;;;7.70;6.85;;;;;;;7.30;91.86;101655.97;5057412;28;20036;-79
2022/02/03 08:38:19;;;;;;;7.88;6.88;;;;;;;7.34;91.78;101643.75;5051682;28;20241;-79
2022/02/03 08:40:29;;;;;;;7.00;6.30;;;;;;;7.35;91.73;101650.72;5054036;28;20045;-79
2022/02/03 08:42:55;;;;;;;8.25;7.40;;;;;;;7.35;91.82;101649.81;5049161;28;20225;-79
2022/02/03 08:45:21;;;;;;;10.43;8.00;;;;;;;7.35;91.52;101660.25;5049414;28;20082;-79
2022/02/03 08:47:46;;;;;;;11.05;7.90;;;;;;;7.36;91.77;101651.56;5054458;28;20354;-79
2022/02/03 08:50:12;;;;;;;9.75;8.00;;;;;;;7.35;91.69;101650.72;5052303;28;20048;-79
2022/02/03 08:53:25;;;;;;;11.68;9.05;;;;;;;7.32;91.53;101645.53;5048285;28;20048;-78
2022/02/03 08:55:38;;;;;;;11.50;8.80;;;;;;;7.32;91.86;101645.53;5044615;28;20356;-79
2022/02/03 09:41:49;;;;;;;10.07;6.90;;;;;;;7.20;92.87;101662.19;4985582;28;20110;-79
2022/02/03 09:50:26;;;;;;;11.15;8.15;;;;;;;7.16;92.73;101655.28;5045910;28;20375;-79
2022/02/03 09:58:18;;;;;;;11.67;6.70;;;;;;;7.14;93.07;101651.00;5069988;28;20028;-79
2022/02/03 10:01:13;;;;;;;7.50;6.80;;;;;;;7.16;93.01;101642.28;5036950;28;20279;-79
2022/02/03 10:03:40;;;;;;;7.93;6.38;;;;;;;7.19;93.02;101636.19;5068375;28;20052;-79
2022/02/03 10:06:14;;;;;;;8.60;6.70;;;;;;;7.16;93.01;101628.38;5038639;28;20422;-79
2022/02/03 10:08:48;;;;;;;9.95;6.07;;;;;;;7.19;92.88;101636.19;5064775;28;20048;-79
2022/02/03 10:11:15;;;;;;;7.85;6.25;;;;;;;7.18;93.24;101627.47;5042401;28;20043;-79
2022/02/03 10:13:46;;;;;;;10.18;6.82;;;;;;;7.21;93.29;101637.88;5061684;28;20224;-79
2022/02/03 10:16:14;;;;;;;6.85;5.28;;;;;;;7.21;93.49;101632.66;5053727;28;20025;-79
2022/02/03 10:18:40;;;;;;;11.55;7.25;;;;;;;7.17;93.22;101637.91;5049544;28;20078;-78
2022/02/03 10:21:09;;;;;;;9.32;6.65;;;;;;;7.17;93.05;101637.91;5048459;28;20033;-78
2022/02/03 10:23:55;;;;;;;8.95;6.63;;;;;;;7.15;92.78;101637.06;5036265;28;20028;-79
2022/02/03 10:26:20;;;;;;;11.77;6.50;;;;;;;7.15;93.39;101634.47;5059182;28;20035;-79
2022/02/03 10:28:55;;;;;;;9.70;6.53;;;;;;;7.14;93.44;101627.56;5067031;28;20033;-79
2022/02/03 10:31:25;;;;;;;8.73;6.72;;;;;;;7.15;93.35;101619.72;5050659;28;20048;-79
2022/02/03 10:34:01;;;;;;;6.30;5.78;;;;;;;7.18;93.34;101616.19;5063049;28;20143;-79
2022/02/03 10:36:48;;;;;;;11.48;6.18;;;;;;;7.18;93.64;101626.63;5066978;28;20254;-79
2022/02/03 10:58:46;;;;;;;8.93;7.10;;;;;;;7.18;93.36;101597.97;5067840;28;20051;-79
2022/02/03 11:01:34;;;;;;;12.32;8.52;;;;;;;7.19;93.20;101584.91;5061271;28;20057;-79
2022/02/03 11:05:03;;;;;;;13.85;9.05;;;;;;;7.16;92.78;101597.13;5066643;28;20044;-79
2022/02/03 11:07:04;;;;;;;17.95;9.77;;;;;;;7.16;92.58;101591.91;5062195;28;20064;-79
2022/02/03 11:09:57;;;;;;;11.23;9.20;;;;;;;7.13;92.76;101587.63;5071602;28;20324;-79
2022/02/03 11:12:28;;;;;;;12.55;9.38;;;;;;;7.12;92.81;101572.88;5070100;28;20040;-79
2022/02/03 11:14:54;;;;;;;16.75;9.38;;;;;;;7.08;92.70;101579.88;5049492;28;20033;-79
2022/02/03 11:17:20;;;;;;;14.32;8.98;;;;;;;7.11;92.78;101576.34;5049468;28;20060;-79
2022/02/03 11:19:49;;;;;;;12.13;8.98;;;;;;;7.11;92.85;101564.19;5064520;28;20052;-79
2022/02/03 11:22:20;;;;;;;13.95;9.50;;;;;;;7.12;92.49;101559.84;5076251;28;20041;-79
2022/02/03 11:24:55;;;;;;;15.48;9.70;;;;;;;7.13;92.59;101556.38;5040300;28;20086;-79
2022/02/03 11:27:34;;;;;;;17.10;10.18;;;;;;;7.13;92.67;101558.09;5040520;28;20049;-79
2022/02/03 11:47:43;;;;;;;12.90;8.63;;;;;;;7.18;92.90;101551.94;5022401;28;20049;-79
2022/02/03 11:53:33;;;;;;;15.38;9.45;;;;;;;7.14;93.17;101536.38;5068103;28;20036;-79
2022/02/03 12:01:47;;;;;;;14.85;10.35;;;;;;;7.11;93.38;101524.25;5080923;28;20024;-79
2022/02/03 12:04:55;;;;;;;13.15;10.25;;;;;;;7.14;93.34;101528.56;5057490;28;20033;-79
2022/02/03 12:10:51;;;;;;;17.77;10.60;;;;;;;7.12;93.72;101518.16;5049762;28;20113;-79
2022/02/03 12:16:05;;;;;;;12.52;9.80;;;;;;;7.16;93.74;101529.41;5065141;28;20036;-78
2022/02/03 12:19:24;;;;;;;11.98;8.43;;;;;;;7.17;93.67;101523.28;5069259;28;20039;-79
2022/02/03 12:21:45;;;;;;;13.93;9.90;;;;;;;7.14;93.62;101523.34;5057376;28;20359;-79
2022/02/03 12:24:23;;;;;;;12.13;8.95;;;;;;;7.15;93.46;101522.44;5060377;28;20025;-79
2022/02/03 12:27:16;;;;;;;15.02;11.10;;;;;;;7.09;93.90;101516.47;5043368;28;20028;-79
2022/02/03 12:29:53;;;;;;;13.98;9.20;;;;;;;7.11;93.98;101511.22;5069978;28;20356;-79
2022/02/03 12:32:41;;;;;;;15.85;10.10;;;;;;;7.10;94.10;101499.09;5061344;28;20071;-79
2022/02/03 12:43:36;;;;;;;13.70;10.00;;;;;;;7.05;94.41;101488.75;5055812;28;20048;-79
2022/02/03 12:46:03;;;;;;;15.68;11.25;;;;;;;7.05;94.48;101495.69;5060029;28;20418;-80
2022/02/03 12:48:31;;;;;;;12.63;10.43;;;;;;;7.07;94.49;101494.78;5061803;28;20087;-79
2022/02/03 12:50:58;;;;;;;13.95;9.20;;;;;;;7.10;94.49;101493.88;5074181;28;20336;-79
2022/02/03 12:53:33;;;;;;;12.13;8.75;;;;;;;7.15;94.36;101488.59;5062185;28;20262;-79
2022/02/03 12:55:59;;;;;;;16.77;11.10;;;;;;;7.15;94.61;101478.16;5052171;28;20032;-79
2022/02/03 12:58:26;;;;;;;16.27;11.73;;;;;;;7.16;94.36;101475.53;5057817;28;20347;-79
2022/02/03 13:00:59;;;;;;;14.88;11.35;;;;;;;7.17;94.43;101472.06;5074480;28;20038;-79
2022/02/03 13:03:34;;;;;;;19.30;10.70;;;;;;;7.19;94.46;101472.91;5080605;28;20265;-79
2022/02/03 13:06:05;;;;;;;14.20;10.65;;;;;;;7.18;94.42;101470.31;5055776;28;20035;-79
2022/02/03 13:08:32;;;;;;;17.67;11.55;;;;;;;7.17;94.26;101476.41;5060718;28;20617;-79
2022/02/03 13:11:08;;;;;;;13.32;10.75;;;;;;;7.13;94.20;101474.75;5074280;28;20053;-79
2022/02/03 13:13:43;;;;;;;16.55;10.00;;;;;;;7.11;93.94;101467.81;5038982;28;20024;-79
2022/02/03 13:16:10;;;;;;;16.67;10.63;;;;;;;7.08;93.82;101464.41;5041931;28;20177;-79
2022/02/03 13:18:43;;;;;;;16.35;10.30;;;;;;;7.06;93.91;101460.97;5039222;28;20075;-79
2022/02/03 13:21:33;;;;;;;11.75;9.65;;;;;;;7.05;94.28;101451.44;5040074;28;20032;-79
2022/02/03 13:24:22;;;;;;;14.88;9.63;;;;;;;7.05;93.98;101444.47;5072488;28;20032;-79
2022/02/03 13:26:48;;;;;;;17.15;10.80;;;;;;;7.03;94.10;101441.03;5075651;28;20102;-79
2022/02/03 13:29:21;;;;;;;14.73;9.82;;;;;;;7.04;94.20;101436.66;5056026;28;20514;-79
2022/02/03 13:31:54;;;;;;;12.13;9.60;;;;;;;7.05;94.47;101435.81;5058432;28;20052;-79
2022/02/03 13:36:58;;;;;;;10.95;9.25;;;;;;;7.07;94.46;101442.69;5077462;28;20048;-79
2022/02/03 13:39:28;;;;;;;11.30;9.35;;;;;;;7.10;94.29;101447.00;5077877;28;20035;-79
2022/02/03 13:42:20;;;;;;;13.80;9.80;;;;;;;7.10;93.78;101440.03;5046259;28;20089;-79
2022/02/03 13:44:45;;;;;;;11.43;8.65;;;;;;;7.08;93.55;101438.38;5041050;28;20098;-79
2022/02/03 13:47:25;;;;;;;12.63;8.57;;;;;;;7.11;93.81;101430.47;5068639;28;20037;-79
2022/02/03 13:50:29;;;;;;;12.07;8.75;;;;;;;7.14;93.94;101435.66;5061584;28;20198;-79
2022/02/03 13:53:09;;;;;;;8.75;7.85;;;;;;;7.11;93.79;101433.97;5064816;28;20055;-79
2022/02/03 14:15:43;;;;;;;8.07;7.32;;;;;;;7.16;93.63;101412.19;5067116;28;20032;-79
2022/02/03 14:18:19;;;;;;;10.23;7.40;;;;;;;7.15;93.61;101405.22;5066096;28;20045;-79
2022/02/03 14:20:59;;;;;;;9.25;7.05;;;;;;;7.16;93.57;101406.97;5062237;28;20044;-79
2022/02/03 14:26:55;;;;;;;;;;;;;;;7.18;93.65;101407.78;5035703;28;20082;-79
2022/02/03 14:28:53;;;;;;;13.13;8.27;;;;;;;7.21;93.66;101392.97;5066463;28;20047;-79
2022/02/03 14:31:19;;;;;;;7.22;6.53;;;;;;;7.22;93.62;101383.41;5056922;28;20339;-79
2022/02/03 14:33:44;;;;;;;9.27;7.30;;;;;;;7.24;93.85;101389.44;5062784;28;20048;-79
2022/02/03 14:36:14;;;;;;;13.55;8.55;;;;;;;7.25;93.86;101393.78;5057839;28;20360;-79
2022/02/03 14:41:38;;;;;;;15.13;8.60;;;;;;;7.22;93.73;101388.63;5058404;28;20334;-79
2022/02/03 14:44:04;;;;;;;10.07;8.48;;;;;;;7.23;93.61;101385.13;5042055;28;20063;-79
2022/02/03 14:46:32;;;;;;;9.75;7.70;;;;;;;7.25;93.50;101385.97;5061059;28;20386;-79
2022/02/03 14:48:57;;;;;;;9.07;7.57;;;;;;;7.24;93.53;101377.28;5048991;28;20112;-79
2022/02/03 14:51:30;;;;;;;11.68;7.53;;;;;;;7.26;93.71;101374.66;5047832;28;20032;-79
2022/02/03 14:59:11;;;;;;;12.15;7.82;;;;;;;7.26;93.27;101377.28;5059295;28;20040;-79
2022/02/03 15:01:38;;;;;;;7.82;7.13;;;;;;;7.25;93.41;101376.38;5068347;28;20029;-79
2022/02/03 15:04:08;;;;;;;17.20;8.45;;;;;;;7.26;93.35;101380.72;5076780;28;20056;-79
2022/02/03 15:06:40;;;;;;;11.13;7.57;;;;;;;7.24;93.45;101372.09;5060175;28;20089;-79
2022/02/03 15:11:57;;;;;;;11.00;7.55;;;;;;;7.23;93.18;101374.72;5079817;28;20040;-79
2022/02/03 15:14:23;;;;;;;11.48;7.18;;;;;;;7.23;93.11;101364.28;5073977;28;20226;-79
2022/02/03 15:16:49;;;;;;;7.20;6.50;;;;;;;7.24;93.37;101361.66;5044837;28;20037;-79
2022/02/03 15:19:14;;;;;;;12.02;7.70;;;;;;;7.26;93.24;101356.44;5081419;28;20031;-79
2022/02/03 15:21:40;;;;;;;8.10;7.00;;;;;;;7.27;93.13;101355.53;5048259;28;20128;-79
2022/02/03 15:24:06;;;;;;;7.97;7.20;;;;;;;7.25;93.05;101365.97;5061368;28;20039;-79
2022/02/03 15:26:32;;;;;;;13.55;6.82;;;;;;;7.27;93.11;101365.94;5061188;28;20488;-79
2022/02/03 15:28:57;;;;;;;11.40;7.57;;;;;;;7.27;93.05;101369.41;5070789;28;20032;-79
2022/02/03 15:31:29;;;;;;;12.80;7.68;;;;;;;7.25;92.62;101365.97;5056160;28;20040;-79
2022/02/03 15:34:03;;;;;;;8.57;6.28;;;;;;;7.26;92.84;101365.09;5054150;28;20039;-79
2022/02/03 15:36:28;;;;;;;9.18;6.13;;;;;;;7.27;92.82;101360.72;5042414;28;20056;-79
2022/02/03 15:38:55;;;;;;;10.13;6.90;;;;;;;7.25;92.93;101358.16;5071243;28;20055;-79
2022/02/03 15:41:25;;;;;;;10.60;7.13;;;;;;;7.21;92.89;101347.84;5040474;28;20263;-79
2022/02/03 15:43:52;;;;;;;8.30;7.10;;;;;;;7.21;92.74;101351.28;5063118;28;20027;-79
2022/02/03 15:46:20;;;;;;;10.85;7.82;;;;;;;7.21;92.52;101360.88;5074354;28;20127;-79
2022/02/03 15:49:00;;;;;;;7.85;7.13;;;;;;;7.21;92.87;101361.72;5063886;28;20310;-79
2022/02/03 15:57:03;;;;;;;7.80;5.90;;;;;;;7.24;92.91;101359.06;5073513;28;20349;-79
2022/02/03 16:02:45;;;;;;;11.10;6.95;;;;;;;7.23;92.66;101353.88;5049098;28;20232;-79
2022/02/03 16:13:18;;;;;;;7.93;7.03;;;;;;;7.23;92.75;101348.66;5043422;28;20252;-79
2022/02/03 16:18:37;;;;;;;10.07;6.20;;;;;;;7.22;92.91;101354.75;5031734;28;20517;-79
2022/02/03 16:21:53;;;;;;;11.63;7.18;;;;;;;7.21;92.90;101353.03;5046262;28;20079;-79
2022/02/03 16:50:59;;;;;;;10.63;6.05;;;;;;;7.17;93.17;101351.34;5072616;28;20039;-79
2022/02/03 16:53:25;;;;;;;5.65;5.15;;;;;;;7.19;93.10;101354.81;5061437;28;20044;-79
2022/02/03 16:55:50;;;;;;;6.28;5.60;;;;;;;7.19;93.04;101358.28;5061076;28;20240;-79
2022/02/03 16:58:16;;;;;;;5.70;5.10;;;;;;;7.17;92.95;101349.63;5055601;28;20102;-79
2022/02/03 17:00:45;;;;;;;7.45;5.60;;;;;;;7.16;92.95;101341.84;5056696;28;20059;-79
2022/02/03 17:03:10;;;;;;;7.95;5.72;;;;;;;7.16;92.92;101347.91;5062106;28;20139;-79
2022/02/03 17:05:37;;;;;;;6.65;4.75;;;;;;;7.18;92.99;101350.47;5077425;28;20373;-79
2022/02/03 17:08:04;;;;;;;7.55;4.78;;;;;;;7.18;92.88;101351.34;5045562;28;20028;-79
2022/02/03 17:10:29;;;;;;;7.57;5.55;;;;;;;7.16;92.82;101341.84;5073761;28;20037;-79
2022/02/03 17:12:55;;;;;;;4.85;4.28;;;;;;;7.18;92.80;101350.47;5059556;28;20024;-79
2022/02/03 17:15:21;;;;;;;6.20;5.07;;;;;;;7.18;92.86;101350.47;5029253;28;20032;-79
2022/02/03 17:17:50;;;;;;;8.77;4.68;;;;;;;7.17;93.01;101343.53;5045069;28;20055;-79
2022/02/03 17:20:16;;;;;;;6.18;5.57;;;;;;;7.19;92.94;101347.00;5045891;28;20292;-79
2022/02/03 17:22:43;;;;;;;5.55;5.03;;;;;;;7.17;92.91;101344.44;5062639;28;20044;-78
2022/02/03 17:25:18;;;;;;;7.57;4.88;;;;;;;7.20;92.87;101338.28;5059615;28;20040;-79
2022/02/03 17:28:13;;;;;;;5.65;4.47;;;;;;;7.22;93.07;101344.31;5068115;28;20048;-79
2022/02/03 17:30:38;;;;;;;8.57;5.43;;;;;;;7.19;92.96;101345.25;5062795;28;20084;-79
2022/02/03 18:35:18;;;;;;;13.32;7.45;;;;;;;7.17;92.21;101360.06;5056924;28;20044;-78
2022/02/03 18:46:33;;;;;;;8.15;6.38;;;;;;;7.23;92.37;101356.47;5042216;28;20528;-78
2022/02/03 18:58:57;;;;;;;7.32;6.30;;;;;;;7.26;92.43;101362.50;5060531;28;20036;-78
2022/02/03 19:01:39;;;;;;;7.60;5.85;;;;;;;7.26;92.29;101364.25;5070593;28;20042;-78
2022/02/03 19:10:04;;;;;;;8.02;4.90;;;;;;;7.28;92.46;101349.44;5049478;28;20055;-79
2022/02/03 20:05:28;;;;;;;6.57;4.35;;;;;;;7.29;91.82;101338.13;5044024;28;20287;-78
2022/02/03 20:08:03;;;;;;;7.40;3.88;;;;;;;7.29;92.05;101341.59;5061656;28;20065;-78
2022/02/03 20:10:37;;;;;;;6.57;3.88;;;;;;;7.31;91.81;101341.53;5072348;28;20311;-78
2022/02/03 20:13:02;;;;;;;4.18;3.25;;;;;;;7.32;92.01;101348.47;5064792;28;20348;-79
2022/02/03 20:15:28;;;;;;;4.63;3.40;;;;;;;7.29;91.51;101346.81;5064444;28;20385;-78
2022/02/03 20:17:54;;;;;;;10.18;3.22;;;;;;;7.32;91.37;101340.66;5068359;28;20137;-79
2022/02/03 20:20:20;;;;;;;7.60;3.08;;;;;;;7.30;91.41;101334.63;5066662;28;20048;-79
2022/02/03 20:22:45;;;;;;;6.45;3.72;;;;;;;7.28;91.50;101328.59;5055744;28;20051;-79
2022/02/03 20:25:11;;;;;;;10.35;3.92;;;;;;;7.25;90.94;101329.50;5057479;28;20060;-78
2022/02/03 20:27:37;;;;;;;10.23;3.60;;;;;;;7.26;91.05;101330.38;5044451;28;20043;-78
2022/02/03 20:30:05;;;;;;;4.22;3.75;;;;;;;7.26;91.19;101341.66;5057918;28;20033;-79
2022/02/03 20:32:31;;;;;;;8.45;4.30;;;;;;;7.26;91.23;101335.59;5056278;28;20041;-79
2022/02/03 20:34:57;;;;;;;6.25;4.47;;;;;;;7.26;91.21;101336.44;5060645;28;20060;-79
2022/02/03 20:37:22;;;;;;;4.45;3.60;;;;;;;7.27;91.34;101332.06;5059962;28;20115;-79
2022/02/03 20:39:48;;;;;;;5.63;4.32;;;;;;;7.28;91.21;101329.44;5070818;28;20048;-79
2022/02/03 20:42:16;;;;;;;5.78;4.20;;;;;;;7.29;91.39;101328.56;5057535;28;20029;-79
2022/02/03 20:44:46;;;;;;;5.25;4.35;;;;;;;7.30;91.30;101330.28;5063189;28;20051;-79
2022/02/03 20:47:12;;;;;;;8.05;4.57;;;;;;;7.33;91.65;101320.69;5072454;28;20399;-79
2022/02/03 20:49:38;;;;;;;9.68;6.22;;;;;;;7.30;91.06;101322.44;5060503;28;20331;-78
2022/02/03 20:52:03;;;;;;;9.25;5.45;;;;;;;7.32;90.92;101322.44;5062910;28;20045;-78
2022/02/03 20:54:29;;;;;;;9.52;6.38;;;;;;;7.31;90.74;101315.50;5063408;28;20336;-78
2022/02/03 20:56:54;;;;;;;10.60;6.35;;;;;;;7.29;90.67;101309.44;5060972;28;20044;-78
2022/02/03 20:59:26;;;;;;;8.55;6.35;;;;;;;7.32;91.04;101311.16;5064845;28;20340;-78
2022/02/03 21:01:54;;;;;;;11.10;7.18;;;;;;;7.29;90.82;101307.72;5067356;28;20048;-79
2022/02/03 21:04:32;;;;;;;11.20;7.30;;;;;;;7.29;90.53;101301.63;5066588;28;20067;-81
2022/02/03 21:06:58;;;;;;;14.13;6.47;;;;;;;7.29;90.39;101291.22;5039207;28;20255;-79
2022/02/03 21:09:23;;;;;;;7.90;6.05;;;;;;;7.29;90.50;101302.53;5047741;28;20043;-79
2022/02/03 21:11:49;;;;;;;10.57;6.55;;;;;;;7.29;90.29;101304.25;5051060;28;20393;-78
2022/02/03 21:14:14;;;;;;;7.78;5.63;;;;;;;7.29;90.38;101312.06;5040648;28;20033;-78
2022/02/03 21:16:40;;;;;;;7.75;6.05;;;;;;;7.30;90.39;101303.38;5034160;28;20041;-78
2022/02/03 21:19:06;;;;;;;8.02;5.28;;;;;;;7.30;90.42;101305.97;5038323;28;20312;-78
2022/02/03 21:21:31;;;;;;;11.35;6.63;;;;;;;7.29;90.28;101305.13;5044490;28;20036;-79
2022/02/03 21:23:57;;;;;;;9.15;6.07;;;;;;;7.32;90.63;101308.56;5037928;28;20328;-79
2022/02/03 21:26:32;;;;;;;7.70;5.57;;;;;;;7.32;90.31;101296.38;5057886;28;20037;-79
2022/02/03 21:28:58;;;;;;;6.25;5.25;;;;;;;7.31;90.31;101294.66;5039053;28;20119;-79
2022/02/03 21:31:24;;;;;;;8.82;5.60;;;;;;;7.28;89.29;101290.38;5045289;28;20057;-79
2022/02/03 21:33:54;;;;;;;6.75;5.50;;;;;;;7.30;89.59;101303.38;5061380;28;20264;-79
2022/02/03 21:36:21;;;;;;;6.50;5.25;;;;;;;7.29;89.43;101293.81;5071799;28;20150;-79
2022/02/03 21:38:47;;;;;;;7.60;4.97;;;;;;;7.30;89.71;101301.63;5018587;28;20331;-79
2022/02/03 21:41:13;;;;;;;8.00;4.65;;;;;;;7.30;89.83;101300.75;5042624;28;20048;-79
2022/02/03 21:43:39;;;;;;;6.00;4.75;;;;;;;7.30;89.82;101305.97;5038035;28;20280;-79
2022/02/03 21:46:05;;;;;;;7.93;5.05;;;;;;;7.28;89.37;101292.13;5042060;28;20032;-78
2022/02/03 21:48:30;;;;;;;7.07;4.70;;;;;;;7.30;89.33;101312.03;5054812;28;20347;-78
2022/02/03 21:50:59;;;;;;;5.10;4.57;;;;;;;7.29;89.28;101299.91;5037380;28;20140;-78
2022/02/03 21:53:29;;;;;;;5.45;4.88;;;;;;;7.28;89.27;101290.38;5053556;28;20036;-79
2022/02/03 21:55:56;;;;;;;6.65;4.55;;;;;;;7.31;89.70;101292.03;5063839;28;20028;-79